Reading, Pennsylvania
Current Conditions -  °F | °C
As of 10:54 PM on Friday 19 Dec 2014 (Local Time) from KRDG Reporting Station
Overcast Overcast  
Wind Chill: 27°   Ceiling: 3600
Heat Index: 34°   Visibility: 10mi
Dew Point: 21°   Wind: 9mph
Humidity: 59%   Direction: 320°NW
Pressure: 30.2"   Gusts: NA
Location:  40.34°N, 75.93°W
Report Text: KRDG 200354Z 32008KT 10SM OVC036 01/M06 A3020 RMK AO2 SLP235 T00111061
Loading
Personal Weather Stations






























Interactive Weather Map New forecast layout! Learn more

10-Day Weather Forecast

Advertisements
Track Severe Weather on mobile